createdAt,value
2019-01-31T00:01:29.727Z,167.87
2019-01-31T00:04:34.817Z,170.97
2019-01-31T00:07:42.824Z,179.00
2019-01-31T00:10:39.640Z,184.37
2019-01-31T00:13:41.999Z,189.37
2019-01-31T00:16:56.779Z,184.87
2019-01-31T00:19:57.496Z,184.90
2019-01-31T00:23:25.497Z,197.03
2019-01-31T00:26:29.854Z,178.87
2019-01-31T00:29:36.746Z,163.83
2019-01-31T00:32:48.167Z,173.53
2019-01-31T00:36:00.558Z,162.13
2019-01-31T00:39:38.252Z,162.23
2019-01-31T00:42:50.269Z,154.60
2019-01-31T00:45:49.311Z,152.87
2019-01-31T00:48:54.825Z,133.60
2019-01-31T00:51:44.590Z,148.07
2019-01-31T00:55:13.592Z,134.63
2019-01-31T00:58:16.729Z,136.03
2019-01-31T01:01:07.698Z,123.27
2019-01-31T01:04:05.991Z,128.83
2019-01-31T01:07:19.194Z,123.73
2019-01-31T01:10:23.390Z,135.90
2019-01-31T01:13:19.124Z,140.93
2019-01-31T01:15:58.212Z,132.67
2019-01-31T01:18:58.140Z,146.47
2019-01-31T01:21:50.359Z,142.70
2019-01-31T01:24:48.778Z,141.33
2019-01-31T01:27:32.238Z,143.73
2019-01-31T01:30:16.075Z,141.63
2019-01-31T01:33:29.654Z,139.03
2019-01-31T01:36:10.881Z,140.43
2019-01-31T01:39:21.169Z,135.10
2019-01-31T01:42:15.976Z,139.93
2019-01-31T01:45:26.741Z,142.33
2019-01-31T01:48:12.496Z,142.80
2019-01-31T01:51:12.734Z,152.93
2019-01-31T01:54:20.226Z,150.10
2019-01-31T01:57:10.899Z,152.27
2019-01-31T02:00:42.960Z,150.33
2019-01-31T02:04:09.154Z,148.27
2019-01-31T02:07:27.269Z,146.33
2019-01-31T02:10:37.041Z,153.17
2019-01-31T02:13:36.997Z,156.13
2019-01-31T02:16:33.340Z,160.00
2019-01-31T02:19:27.120Z,165.90
2019-01-31T02:22:29.727Z,153.07
2019-01-31T02:25:13.363Z,163.50
2019-01-31T02:28:19.272Z,175.47
2019-01-31T02:31:18.473Z,178.63
2019-01-31T02:34:39.987Z,176.50
2019-01-31T02:37:53.796Z,171.20
2019-01-31T02:40:45.629Z,171.97
2019-01-31T02:43:31.023Z,170.13
2019-01-31T02:46:22.597Z,183.07
2019-01-31T02:49:35.233Z,172.13
2019-01-31T02:52:45.546Z,171.87
2019-01-31T02:56:12.126Z,162.37
2019-01-31T02:58:50.360Z,155.57
2019-01-31T03:02:03.145Z,167.37
2019-01-31T03:04:53.637Z,155.17
2019-01-31T03:07:56.612Z,166.07
2019-01-31T03:11:06.745Z,161.80
2019-01-31T03:14:09.470Z,166.77
2019-01-31T03:17:13.920Z,177.33
2019-01-31T03:20:19.689Z,177.47
2019-01-31T03:23:16.236Z,184.53
2019-01-31T03:26:01.983Z,180.73
2019-01-31T03:29:00.992Z,188.17
2019-01-31T03:31:55.142Z,193.37
2019-01-31T03:34:46.562Z,177.77
2019-01-31T03:37:58.735Z,179.53
2019-01-31T03:40:35.084Z,181.30
2019-01-31T03:43:44.810Z,187.03
2019-01-31T03:47:05.275Z,181.37
2019-01-31T03:50:07.236Z,175.47
2019-01-31T03:53:29.149Z,173.57
2019-01-31T03:56:48.859Z,172.13
2019-01-31T03:59:39.857Z,175.63
2019-01-31T04:02:42.973Z,176.03
2019-01-31T04:05:37.818Z,187.87
2019-01-31T04:08:08.187Z,188.43
2019-01-31T04:10:37.383Z,181.43
2019-01-31T04:13:07.261Z,196.50
2019-01-31T04:15:36.681Z,212.13
2019-01-31T04:18:06.839Z,201.13
2019-01-31T04:20:35.987Z,205.40
2019-01-31T04:23:05.451Z,198.00
2019-01-31T04:25:34.936Z,235.53
2019-01-31T04:28:05.136Z,248.40
2019-01-31T04:30:34.643Z,251.90
2019-01-31T04:33:04.103Z,263.10
2019-01-31T04:35:33.190Z,255.47
2019-01-31T04:38:02.872Z,251.37
2019-01-31T04:40:32.626Z,279.27
2019-01-31T04:43:02.500Z,272.30
2019-01-31T04:45:32.673Z,269.97
2019-01-31T04:48:02.046Z,284.13
2019-01-31T04:50:31.502Z,295.73
2019-01-31T04:53:00.979Z,314.60
2019-01-31T04:55:30.742Z,313.80
2019-01-31T04:58:00.287Z,292.13
2019-01-31T05:00:29.535Z,289.57
2019-01-31T05:02:58.686Z,290.43
2019-01-31T05:05:27.788Z,251.20
2019-01-31T05:07:57.835Z,236.47
2019-01-31T05:10:26.909Z,249.13
2019-01-31T05:12:56.727Z,237.80
2019-01-31T05:15:26.158Z,228.40
2019-01-31T05:17:56.063Z,223.13
2019-01-31T05:20:25.609Z,209.13
2019-01-31T05:22:55.337Z,208.07
2019-01-31T05:25:24.838Z,217.30
2019-01-31T05:27:54.664Z,216.40
2019-01-31T05:30:23.791Z,205.10
2019-01-31T05:32:53.618Z,220.03
2019-01-31T05:35:23.116Z,202.33
2019-01-31T05:37:53.257Z,202.73
2019-01-31T05:40:22.917Z,218.57
2019-01-31T05:42:52.775Z,200.13
2019-01-31T05:45:22.218Z,209.10
2019-01-31T05:47:51.222Z,223.00
2019-01-31T05:50:20.759Z,219.97
2019-01-31T05:52:50.294Z,219.57
2019-01-31T05:55:19.379Z,203.10
2019-01-31T05:57:48.636Z,220.33
2019-01-31T06:00:26.860Z,230.70
2019-01-31T06:02:56.264Z,223.87
2019-01-31T06:05:26.040Z,232.83
2019-01-31T06:07:55.516Z,242.30
2019-01-31T06:10:25.654Z,239.83
2019-01-31T06:12:55.463Z,242.37
2019-01-31T06:15:24.939Z,259.70
2019-01-31T06:17:54.806Z,248.33
2019-01-31T06:20:25.233Z,257.70
2019-01-31T06:22:54.538Z,255.03
2019-01-31T06:25:24.660Z,238.97
2019-01-31T06:27:54.328Z,254.77
2019-01-31T06:30:24.161Z,250.47
2019-01-31T06:32:54.189Z,244.77
2019-01-31T06:35:23.711Z,255.83
2019-01-31T06:37:53.442Z,257.10
2019-01-31T06:40:22.971Z,241.77
2019-01-31T06:42:52.357Z,275.97
2019-01-31T06:45:21.838Z,262.13
2019-01-31T06:47:50.974Z,267.53
2019-01-31T06:50:20.832Z,254.90
2019-01-31T06:52:49.932Z,263.27
2019-01-31T06:55:19.644Z,283.07
2019-01-31T06:57:48.767Z,278.80
2019-01-31T07:00:20.620Z,285.60
2019-01-31T07:02:49.854Z,288.13
2019-01-31T07:05:19.939Z,282.13
2019-01-31T07:07:49.431Z,283.50
2019-01-31T07:10:21.523Z,308.30
2019-01-31T07:12:51.715Z,281.07
2019-01-31T07:15:21.841Z,308.43
2019-01-31T07:17:51.474Z,298.30
2019-01-31T07:20:21.421Z,292.07
2019-01-31T07:22:50.524Z,288.97
2019-01-31T07:25:22.273Z,308.97
2019-01-31T07:27:51.489Z,313.40
2019-01-31T07:30:20.677Z,314.77
2019-01-31T07:32:49.812Z,304.23
2019-01-31T07:35:19.785Z,302.03
2019-01-31T07:37:49.229Z,307.80
2019-01-31T07:40:20.143Z,311.00
2019-01-31T07:42:49.231Z,319.27
2019-01-31T07:45:24.908Z,327.40
2019-01-31T07:47:53.970Z,314.40
2019-01-31T07:50:23.081Z,323.70
2019-01-31T07:52:52.627Z,327.87
2019-01-31T07:55:21.707Z,323.37
2019-01-31T07:57:51.806Z,328.63
2019-01-31T08:00:21.445Z,338.33
2019-01-31T08:02:50.542Z,341.13
2019-01-31T08:05:21.143Z,324.33
2019-01-31T08:07:51.272Z,329.87
2019-01-31T08:10:29.631Z,330.90
2019-01-31T08:12:59.145Z,273.97
2019-01-31T08:15:28.684Z,259.93
2019-01-31T08:17:58.490Z,247.13
2019-01-31T08:20:27.923Z,231.13
2019-01-31T08:23:00.073Z,256.77
2019-01-31T08:25:28.269Z,235.50
2019-01-31T08:27:57.706Z,243.93
2019-01-31T08:30:29.410Z,245.60
2019-01-31T08:32:58.831Z,234.00
2019-01-31T08:35:28.329Z,238.10
2019-01-31T08:37:58.095Z,220.07
2019-01-31T08:40:28.171Z,217.73
2019-01-31T08:42:57.260Z,221.37
2019-01-31T08:45:27.097Z,236.07
2019-01-31T08:47:56.248Z,231.43
2019-01-31T08:50:27.677Z,237.77
2019-01-31T08:52:57.574Z,224.13
2019-01-31T08:55:27.426Z,219.80
2019-01-31T08:57:56.820Z,222.23
2019-01-31T09:00:28.492Z,219.33
2019-01-31T09:02:58.339Z,226.87
2019-01-31T09:05:28.359Z,230.40
2019-01-31T09:07:57.496Z,235.53
2019-01-31T09:10:32.219Z,222.17
2019-01-31T09:13:03.511Z,227.23
2019-01-31T09:15:32.881Z,230.33
2019-01-31T09:18:02.763Z,215.37
2019-01-31T09:20:36.283Z,207.00
2019-01-31T09:23:20.689Z,206.23
2019-01-31T09:26:09.002Z,193.20
2019-01-31T09:29:15.412Z,184.13
2019-01-31T09:32:07.334Z,183.93
2019-01-31T09:34:59.187Z,175.70
2019-01-31T09:37:53.706Z,172.80
2019-01-31T09:40:52.385Z,164.50
2019-01-31T09:44:00.221Z,160.23
2019-01-31T09:47:05.884Z,147.53
2019-01-31T09:50:18.130Z,141.77
2019-01-31T09:53:40.472Z,143.93
2019-01-31T09:56:51.807Z,142.20
2019-01-31T09:59:33.903Z,132.77
2019-01-31T10:02:40.167Z,135.63
2019-01-31T10:05:35.787Z,135.27
2019-01-31T10:08:48.925Z,139.43
2019-01-31T10:12:10.418Z,147.30
2019-01-31T10:14:46.488Z,144.07
2019-01-31T10:18:08.093Z,139.13
2019-01-31T10:21:22.030Z,114.90
2019-01-31T10:24:32.810Z,102.60
2019-01-31T10:27:38.751Z,101.73
2019-01-31T10:31:01.092Z,78.63
2019-01-31T10:34:17.651Z,73.17
2019-01-31T10:37:26.460Z,69.97
2019-01-31T10:40:36.771Z,69.87
2019-01-31T10:43:36.194Z,73.10
2019-01-31T10:46:56.155Z,64.97
2019-01-31T10:50:34.753Z,65.70
2019-01-31T10:53:36.754Z,68.77
2019-01-31T10:56:56.013Z,66.50
2019-01-31T11:00:14.457Z,53.23
2019-01-31T11:03:22.476Z,43.60
2019-01-31T11:06:34.407Z,51.93
2019-01-31T11:09:16.918Z,36.77
2019-01-31T11:12:29.220Z,33.33
2019-01-31T11:15:36.781Z,47.37
2019-01-31T11:18:24.460Z,32.23
2019-01-31T11:21:33.818Z,28.77
2019-01-31T11:24:28.188Z,36.13
2019-01-31T11:27:33.209Z,23.13
2019-01-31T11:30:33.050Z,16.60
2019-01-31T11:33:22.246Z,17.97
2019-01-31T11:36:22.815Z,29.63
2019-01-31T11:39:36.591Z,33.60
2019-01-31T11:42:31.558Z,26.43
2019-01-31T11:45:34.454Z,28.63
2019-01-31T11:48:27.550Z,29.37
2019-01-31T11:51:32.662Z,35.23
2019-01-31T11:54:55.394Z,48.37
2019-01-31T11:58:13.730Z,57.63
2019-01-31T12:00:42.880Z,63.87
2019-01-31T12:03:12.331Z,72.27
2019-01-31T12:05:42.792Z,63.23
2019-01-31T12:08:12.222Z,71.97
2019-01-31T12:10:41.761Z,132.40
2019-01-31T12:13:10.962Z,134.37
2019-01-31T12:15:40.100Z,145.37
2019-01-31T12:18:09.824Z,128.93
2019-01-31T12:20:40.130Z,139.77
2019-01-31T12:23:10.105Z,142.63
2019-01-31T12:25:39.813Z,139.23
2019-01-31T12:28:09.565Z,170.60
2019-01-31T12:30:38.693Z,143.80
2019-01-31T12:33:08.423Z,151.70
2019-01-31T12:35:38.319Z,152.87
2019-01-31T12:38:08.192Z,125.27
2019-01-31T12:40:37.291Z,112.70
2019-01-31T12:43:06.538Z,117.00
2019-01-31T12:45:35.991Z,118.83
2019-01-31T12:48:05.145Z,96.70
2019-01-31T12:50:34.948Z,68.53
2019-01-31T12:53:04.439Z,67.63
2019-01-31T12:55:34.212Z,43.57
2019-01-31T12:58:03.651Z,27.17
2019-01-31T13:00:33.678Z,25.73
2019-01-31T13:03:03.203Z,38.00
2019-01-31T13:05:33.531Z,36.13
2019-01-31T13:08:03.447Z,34.53
2019-01-31T13:10:32.992Z,35.93
2019-01-31T13:13:03.013Z,39.17
2019-01-31T13:15:33.062Z,35.77
2019-01-31T13:18:03.399Z,31.43
2019-01-31T13:20:33.600Z,31.57
2019-01-31T13:23:03.127Z,33.17
2019-01-31T13:25:32.958Z,35.73
2019-01-31T13:28:03.369Z,29.93
2019-01-31T13:30:33.143Z,26.90
2019-01-31T13:33:03.290Z,24.87
2019-01-31T13:35:33.747Z,23.13
2019-01-31T13:38:03.279Z,22.80
2019-01-31T13:40:32.650Z,19.57
2019-01-31T13:43:02.441Z,26.47
2019-01-31T13:45:34.097Z,26.37
2019-01-31T13:48:06.485Z,27.80
2019-01-31T13:50:35.934Z,28.83
2019-01-31T13:53:06.924Z,29.43
2019-01-31T13:55:36.424Z,26.23
2019-01-31T13:58:06.387Z,29.90
2019-01-31T14:00:36.373Z,29.80
2019-01-31T14:03:06.519Z,29.70
2019-01-31T14:05:36.630Z,29.93
2019-01-31T14:08:06.411Z,31.60
2019-01-31T14:10:37.421Z,33.97
2019-01-31T14:13:07.104Z,28.20
2019-01-31T14:15:37.138Z,35.27
2019-01-31T14:18:06.895Z,35.97
2019-01-31T14:20:36.398Z,30.43
2019-01-31T14:23:05.681Z,33.60
2019-01-31T14:25:36.221Z,30.70
2019-01-31T14:28:05.815Z,33.17
2019-01-31T14:30:36.990Z,38.30
2019-01-31T14:33:19.528Z,28.00
2019-01-31T14:35:48.929Z,32.67
2019-01-31T14:38:18.360Z,35.20
2019-01-31T14:40:47.661Z,37.00
2019-01-31T14:43:16.766Z,37.00
2019-01-31T14:45:46.159Z,42.90
2019-01-31T14:48:16.436Z,44.30
2019-01-31T14:50:46.324Z,46.20
2019-01-31T14:53:16.118Z,52.43
2019-01-31T14:55:45.564Z,44.50
2019-01-31T14:58:15.302Z,54.73
2019-01-31T15:00:44.548Z,49.27
2019-01-31T15:03:14.249Z,48.63
2019-01-31T15:05:43.341Z,44.57
2019-01-31T15:08:13.034Z,42.40
2019-01-31T15:10:45.943Z,49.53
2019-01-31T15:13:14.960Z,53.30
2019-01-31T15:15:44.590Z,48.30
2019-01-31T15:18:14.548Z,52.90
2019-01-31T15:20:46.064Z,56.00
2019-01-31T15:23:15.899Z,58.67
2019-01-31T15:25:45.145Z,58.33
2019-01-31T15:28:14.809Z,64.17
2019-01-31T15:30:44.010Z,64.50
2019-01-31T15:33:14.696Z,57.93
2019-01-31T15:35:44.924Z,65.60
2019-01-31T15:38:14.624Z,69.67
2019-01-31T15:40:48.604Z,67.20
2019-01-31T15:43:18.183Z,82.90
2019-01-31T15:45:47.927Z,93.30
2019-01-31T15:48:18.398Z,115.20
2019-01-31T15:50:48.191Z,116.17
2019-01-31T15:53:17.689Z,106.97
2019-01-31T15:55:47.627Z,107.33
2019-01-31T15:58:16.789Z,106.90
2019-01-31T16:00:49.160Z,107.50
2019-01-31T16:03:20.457Z,124.33
2019-01-31T16:05:50.191Z,111.27
2019-01-31T16:08:19.702Z,110.43
2019-01-31T16:10:48.863Z,93.53
2019-01-31T16:13:18.959Z,95.83
2019-01-31T16:15:49.052Z,116.00
2019-01-31T16:18:18.642Z,114.13
2019-01-31T16:20:48.654Z,110.73
2019-01-31T16:23:18.099Z,115.63
2019-01-31T16:25:48.247Z,141.23
2019-01-31T16:28:17.436Z,135.27
2019-01-31T16:30:47.310Z,139.07
2019-01-31T16:33:16.411Z,152.07
2019-01-31T16:35:46.639Z,145.70
2019-01-31T16:38:16.169Z,167.17
2019-01-31T16:40:46.052Z,153.27
2019-01-31T16:43:15.283Z,138.97
2019-01-31T16:45:46.247Z,141.93
2019-01-31T16:48:16.033Z,146.07
2019-01-31T16:50:45.627Z,141.70
2019-01-31T16:53:15.195Z,136.30
2019-01-31T16:55:45.274Z,150.97
2019-01-31T16:58:14.988Z,141.93
2019-01-31T17:00:45.077Z,145.60
2019-01-31T17:03:14.905Z,148.87
2019-01-31T17:05:44.952Z,148.00
2019-01-31T17:08:14.622Z,152.40
2019-01-31T17:10:44.824Z,142.07
2019-01-31T17:13:14.603Z,141.60
2019-01-31T17:15:44.145Z,136.90
2019-01-31T17:18:14.182Z,152.07
2019-01-31T17:20:45.112Z,172.43
2019-01-31T17:23:14.732Z,201.50
2019-01-31T17:25:44.645Z,224.37
2019-01-31T17:28:15.063Z,264.43
2019-01-31T17:30:44.955Z,252.67
2019-01-31T17:33:14.968Z,228.57
2019-01-31T17:35:46.532Z,222.83
2019-01-31T17:38:16.019Z,231.40
2019-01-31T17:40:46.103Z,218.93
2019-01-31T17:43:15.722Z,200.03
2019-01-31T17:45:45.792Z,172.63
2019-01-31T17:48:18.112Z,157.97
2019-01-31T17:50:48.360Z,155.80
2019-01-31T17:53:18.050Z,154.60
2019-01-31T17:55:47.364Z,154.97
2019-01-31T17:58:17.433Z,156.23
2019-01-31T18:00:58.587Z,152.13
2019-01-31T18:03:29.445Z,161.53
2019-01-31T18:06:00.063Z,160.03
2019-01-31T18:08:29.843Z,158.00
2019-01-31T18:10:59.541Z,160.17
2019-01-31T18:13:29.358Z,150.53
2019-01-31T18:15:59.463Z,174.37
2019-01-31T18:18:28.878Z,170.77
2019-01-31T18:20:59.025Z,174.33
2019-01-31T18:23:28.372Z,173.73
2019-01-31T18:25:58.356Z,170.27
2019-01-31T18:28:28.738Z,171.00
2019-01-31T18:30:58.986Z,168.57
2019-01-31T18:33:28.385Z,171.27
2019-01-31T18:35:58.334Z,177.33
2019-01-31T18:38:28.177Z,174.33
2019-01-31T18:40:58.688Z,174.40
2019-01-31T18:43:28.603Z,172.53
2019-01-31T18:45:57.847Z,182.93
2019-01-31T18:48:27.341Z,179.70
2019-01-31T18:50:56.724Z,185.00
2019-01-31T18:53:26.094Z,188.67
2019-01-31T18:56:07.054Z,183.23
2019-01-31T18:58:36.546Z,179.03
2019-01-31T19:01:05.977Z,210.87
2019-01-31T19:03:35.862Z,200.30
2019-01-31T19:06:05.873Z,201.97
2019-01-31T19:08:35.535Z,212.07
2019-01-31T19:11:05.092Z,223.37
2019-01-31T19:13:34.684Z,227.90
2019-01-31T19:16:05.698Z,230.93
2019-01-31T19:18:35.200Z,221.20
2019-01-31T19:21:04.582Z,221.60
2019-01-31T19:23:34.681Z,231.67
2019-01-31T19:26:04.799Z,232.97
2019-01-31T19:28:34.328Z,219.53
2019-01-31T19:31:04.383Z,208.63
2019-01-31T19:33:34.251Z,212.07
2019-01-31T19:36:03.740Z,213.40
2019-01-31T19:38:33.349Z,215.23
2019-01-31T19:41:03.496Z,229.53
2019-01-31T19:43:33.344Z,221.37
2019-01-31T19:46:02.551Z,227.43
2019-01-31T19:48:32.633Z,213.90
2019-01-31T19:51:02.446Z,230.30
2019-01-31T19:53:32.410Z,227.03
2019-01-31T19:56:01.973Z,228.50
2019-01-31T19:58:31.207Z,226.67
2019-01-31T20:01:01.542Z,231.47
2019-01-31T20:03:31.059Z,241.03
2019-01-31T20:06:01.189Z,229.90
2019-01-31T20:08:31.062Z,232.40
2019-01-31T20:11:00.668Z,230.90
2019-01-31T20:13:29.918Z,227.47
2019-01-31T20:15:59.332Z,232.47
2019-01-31T20:18:29.018Z,231.47
2019-01-31T20:20:58.710Z,229.77
2019-01-31T20:23:28.462Z,243.13
2019-01-31T20:25:58.045Z,336.07
2019-01-31T20:28:27.478Z,338.07
2019-01-31T20:30:57.427Z,310.40
2019-01-31T20:33:27.389Z,300.87
2019-01-31T20:35:56.683Z,273.63
2019-01-31T20:38:26.775Z,281.67
2019-01-31T20:40:56.276Z,281.07
2019-01-31T20:43:25.874Z,250.27
2019-01-31T20:45:55.112Z,243.57
2019-01-31T20:48:25.256Z,226.80
2019-01-31T20:50:55.141Z,208.07
2019-01-31T20:53:25.588Z,202.20
2019-01-31T20:55:55.637Z,197.23
2019-01-31T20:58:25.197Z,202.63
2019-01-31T21:00:55.340Z,214.83
2019-01-31T21:03:24.980Z,222.10
2019-01-31T21:05:54.289Z,232.17
2019-01-31T21:08:23.597Z,226.43
2019-01-31T21:10:53.340Z,249.57
2019-01-31T21:13:22.901Z,250.73
2019-01-31T21:15:53.189Z,242.00
2019-01-31T21:18:22.392Z,242.90
2019-01-31T21:20:51.722Z,251.37
2019-01-31T21:23:21.248Z,244.07
2019-01-31T21:25:50.764Z,230.73
2019-01-31T21:28:20.003Z,227.33
2019-01-31T21:30:49.843Z,209.27
2019-01-31T21:33:20.131Z,195.97
2019-01-31T21:35:50.647Z,196.90
2019-01-31T21:38:21.271Z,194.43
2019-01-31T21:40:51.225Z,186.03
2019-01-31T21:43:20.991Z,177.57
2019-01-31T21:45:50.979Z,185.70
2019-01-31T21:48:20.529Z,188.53
2019-01-31T21:50:50.116Z,158.37
2019-01-31T21:53:19.403Z,150.73
2019-01-31T21:55:49.638Z,154.87
2019-01-31T21:58:19.452Z,141.43
2019-01-31T22:00:48.756Z,156.47
2019-01-31T22:03:18.971Z,164.00
2019-01-31T22:05:48.783Z,179.87
2019-01-31T22:08:17.974Z,183.17
2019-01-31T22:10:47.627Z,175.40
2019-01-31T22:13:17.272Z,169.07
2019-01-31T22:15:47.533Z,168.10
2019-01-31T22:18:17.940Z,163.07
2019-01-31T22:20:47.685Z,168.80
2019-01-31T22:23:17.712Z,164.90
2019-01-31T22:25:47.251Z,159.80
2019-01-31T22:28:17.610Z,171.63
2019-01-31T22:30:47.089Z,156.40
2019-01-31T22:33:16.741Z,156.97
2019-01-31T22:35:46.274Z,146.47
2019-01-31T22:38:16.256Z,165.87
2019-01-31T22:40:45.470Z,156.90
2019-01-31T22:43:15.310Z,148.53
2019-01-31T22:45:45.125Z,149.47
2019-01-31T22:48:14.907Z,152.03
2019-01-31T22:50:44.457Z,148.53
2019-01-31T22:53:14.352Z,147.97
2019-01-31T22:55:43.554Z,148.67
2019-01-31T22:58:13.335Z,145.73
2019-01-31T23:01:34.797Z,153.07
2019-01-31T23:04:04.944Z,152.73
2019-01-31T23:06:34.703Z,148.77
2019-01-31T23:09:06.223Z,153.57
2019-01-31T23:11:35.726Z,149.90
2019-01-31T23:14:06.196Z,153.93
2019-01-31T23:16:36.247Z,151.60
2019-01-31T23:19:06.246Z,149.13
2019-01-31T23:21:35.939Z,153.43
2019-01-31T23:24:06.388Z,152.10
2019-01-31T23:26:36.522Z,136.93
2019-01-31T23:29:06.116Z,148.00
2019-01-31T23:31:35.255Z,147.47
2019-01-31T23:34:05.469Z,142.50
2019-01-31T23:36:34.639Z,141.73
2019-01-31T23:39:06.458Z,139.50
2019-01-31T23:41:35.988Z,157.80
2019-01-31T23:44:05.168Z,154.90
2019-01-31T23:46:35.278Z,156.43
2019-01-31T23:49:05.553Z,153.67
2019-01-31T23:51:35.381Z,156.37
2019-01-31T23:54:04.604Z,159.20
2019-01-31T23:56:34.801Z,165.27
2019-01-31T23:59:04.507Z,160.63
